sensor_id;sensor_type;location;lat;lon;timestamp;pressure;altitude;pressure_sealevel;temperature;humidity
79378;BME280;68959;53.132;17.984;2023-05-10T16:14:17;101121.10;;;24.55;19.04
79378;BME280;68959;53.132;17.984;2023-05-10T16:16:44;101116.55;;;24.37;19.16
79378;BME280;68959;53.132;17.984;2023-05-10T16:19:11;101119.20;;;24.51;19.03
79378;BME280;68959;53.132;17.984;2023-05-10T16:21:38;101124.98;;;24.09;19.42
79378;BME280;68959;53.132;17.984;2023-05-10T16:24:04;101119.27;;;23.63;19.89
79378;BME280;68959;53.132;17.984;2023-05-10T16:26:31;101123.84;;;23.38;20.42
79378;BME280;68959;53.132;17.984;2023-05-10T16:28:58;101130.98;;;23.11;20.65
79378;BME280;68959;53.132;17.984;2023-05-10T16:31:24;101122.27;;;22.89;20.93
79378;BME280;68959;53.132;17.984;2023-05-10T16:33:51;101126.27;;;22.78;21.01
79378;BME280;68959;53.132;17.984;2023-05-10T16:36:17;101123.11;;;22.62;21.09
79378;BME280;68959;53.132;17.984;2023-05-10T16:38:44;101127.83;;;22.47;21.43
79378;BME280;68959;53.132;17.984;2023-05-10T16:41:10;101130.73;;;22.43;21.30
79378;BME280;68959;53.132;17.984;2023-05-10T16:43:37;101130.48;;;22.45;21.35
79378;BME280;68959;53.132;17.984;2023-05-10T16:46:09;101131.62;;;22.31;21.29
79378;BME280;68959;53.132;17.984;2023-05-10T16:48:36;101130.38;;;22.19;21.39
79378;BME280;68959;53.132;17.984;2023-05-10T16:51:03;101136.70;;;22.02;21.65
79378;BME280;68959;53.132;17.984;2023-05-10T16:53:30;101130.98;;;22.19;21.52
79378;BME280;68959;53.132;17.984;2023-05-10T16:56:00;101129.61;;;22.18;21.59
79378;BME280;68959;53.132;17.984;2023-05-10T16:58:26;101134.40;;;22.11;21.73
79378;BME280;68959;53.132;17.984;2023-05-10T17:00:53;101136.17;;;21.92;22.03
79378;BME280;68959;53.132;17.984;2023-05-10T17:03:20;101142.29;;;21.80;22.09
79378;BME280;68959;53.132;17.984;2023-05-10T17:05:46;101136.50;;;21.57;22.26
79378;BME280;68959;53.132;17.984;2023-05-10T17:08:13;101142.11;;;21.42;22.51
79378;BME280;68959;53.132;17.984;2023-05-10T17:10:40;101145.63;;;21.19;22.67
79378;BME280;68959;53.132;17.984;2023-05-10T17:13:07;101151.36;;;21.04;22.82
79378;BME280;68959;53.132;17.984;2023-05-10T17:15:37;101157.52;;;20.70;23.02
79378;BME280;68959;53.132;17.984;2023-05-10T17:18:04;101152.23;;;20.58;23.22
79378;BME280;68959;53.132;17.984;2023-05-10T17:20:33;101154.81;;;20.40;23.66
79378;BME280;68959;53.132;17.984;2023-05-10T17:22:59;101155.78;;;20.18;23.86
79378;BME280;68959;53.132;17.984;2023-05-10T17:25:28;101159.38;;;19.99;24.30
79378;BME280;68959;53.132;17.984;2023-05-10T17:27:55;101164.61;;;19.88;24.44
79378;BME280;68959;53.132;17.984;2023-05-10T17:30:21;101168.30;;;19.71;24.79
79378;BME280;68959;53.132;17.984;2023-05-10T17:32:51;101166.23;;;19.52;24.89
79378;BME280;68959;53.132;17.984;2023-05-10T17:35:20;101165.41;;;19.35;24.94
79378;BME280;68959;53.132;17.984;2023-05-10T17:37:46;101173.87;;;19.11;25.42
79378;BME280;68959;53.132;17.984;2023-05-10T17:40:13;101170.99;;;18.86;25.65
79378;BME280;68959;53.132;17.984;2023-05-10T17:42:40;101174.98;;;18.72;26.02
79378;BME280;68959;53.132;17.984;2023-05-10T17:45:08;101172.34;;;18.60;25.96
79378;BME280;68959;53.132;17.984;2023-05-10T17:47:35;101177.85;;;18.49;26.12
79378;BME280;68959;53.132;17.984;2023-05-10T17:50:02;101181.83;;;18.38;26.18
79378;BME280;68959;53.132;17.984;2023-05-10T17:52:29;101180.68;;;18.25;26.41
79378;BME280;68959;53.132;17.984;2023-05-10T17:54:55;101180.22;;;18.16;26.35
79378;BME280;68959;53.132;17.984;2023-05-10T17:57:22;101185.83;;;18.04;26.51
79378;BME280;68959;53.132;17.984;2023-05-10T17:59:50;101186.89;;;17.92;26.90
79378;BME280;68959;53.132;17.984;2023-05-10T18:02:16;101191.14;;;17.84;27.02
79378;BME280;68959;53.132;17.984;2023-05-10T18:04:43;101193.65;;;17.76;26.90
79378;BME280;68959;53.132;17.984;2023-05-10T18:07:09;101203.40;;;17.66;27.15
79378;BME280;68959;53.132;17.984;2023-05-10T18:09:36;101198.00;;;17.54;27.32
79378;BME280;68959;53.132;17.984;2023-05-10T18:12:03;101205.17;;;17.46;27.45
79378;BME280;68959;53.132;17.984;2023-05-10T18:14:31;101202.94;;;17.36;27.64
79378;BME280;68959;53.132;17.984;2023-05-10T18:16:58;101203.73;;;17.29;27.74
79378;BME280;68959;53.132;17.984;2023-05-10T18:19:24;101209.67;;;17.18;28.06
79378;BME280;68959;53.132;17.984;2023-05-10T18:21:51;101210.80;;;17.11;28.06
79378;BME280;68959;53.132;17.984;2023-05-10T18:24:18;101214.67;;;17.02;28.34
79378;BME280;68959;53.132;17.984;2023-05-10T18:26:47;101217.44;;;16.94;28.39
79378;BME280;68959;53.132;17.984;2023-05-10T18:29:14;101219.95;;;16.85;28.57
79378;BME280;68959;53.132;17.984;2023-05-10T18:31:40;101217.48;;;16.78;28.55
79378;BME280;68959;53.132;17.984;2023-05-10T18:34:08;101222.86;;;16.70;28.78
79378;BME280;68959;53.132;17.984;2023-05-10T18:36:35;101224.17;;;16.63;29.14
79378;BME280;68959;53.132;17.984;2023-05-10T18:39:04;101227.46;;;16.56;29.08
79378;BME280;68959;53.132;17.984;2023-05-10T18:41:31;101231.11;;;16.48;29.09
79378;BME280;68959;53.132;17.984;2023-05-10T18:43:58;101233.09;;;16.41;29.64
79378;BME280;68959;53.132;17.984;2023-05-10T18:46:25;101237.82;;;16.33;29.71
79378;BME280;68959;53.132;17.984;2023-05-10T18:48:53;101239.91;;;16.27;29.79
79378;BME280;68959;53.132;17.984;2023-05-10T18:51:20;101242.84;;;16.19;29.87
79378;BME280;68959;53.132;17.984;2023-05-10T18:53:47;101245.72;;;16.12;30.02
79378;BME280;68959;53.132;17.984;2023-05-10T18:56:14;101247.03;;;16.05;29.76
79378;BME280;68959;53.132;17.984;2023-05-10T18:58:41;101253.34;;;15.99;30.17
79378;BME280;68959;53.132;17.984;2023-05-10T19:01:07;101251.95;;;15.92;30.55
79378;BME280;68959;53.132;17.984;2023-05-10T19:03:34;101248.79;;;15.86;30.55
79378;BME280;68959;53.132;17.984;2023-05-10T19:06:01;101255.88;;;15.80;30.75
79378;BME280;68959;53.132;17.984;2023-05-10T19:08:28;101256.98;;;15.74;30.71
79378;BME280;68959;53.132;17.984;2023-05-10T19:10:55;101256.27;;;15.68;31.03
79378;BME280;68959;53.132;17.984;2023-05-10T19:13:22;101264.02;;;15.61;31.11
79378;BME280;68959;53.132;17.984;2023-05-10T19:16:09;101268.03;;;15.55;31.32
79378;BME280;68959;53.132;17.984;2023-05-10T19:18:37;101271.48;;;15.47;31.41
79378;BME280;68959;53.132;17.984;2023-05-10T19:21:04;101267.06;;;15.40;31.64
79378;BME280;68959;53.132;17.984;2023-05-10T19:23:33;101266.90;;;15.33;31.80
79378;BME280;68959;53.132;17.984;2023-05-10T19:26:00;101267.11;;;15.26;31.87
79378;BME280;68959;53.132;17.984;2023-05-10T19:28:27;101272.52;;;15.19;31.85
79378;BME280;68959;53.132;17.984;2023-05-10T19:30:53;101273.99;;;15.14;31.97
79378;BME280;68959;53.132;17.984;2023-05-10T19:33:21;101275.30;;;15.10;31.89
79378;BME280;68959;53.132;17.984;2023-05-10T19:35:51;101278.00;;;15.05;32.02
79378;BME280;68959;53.132;17.984;2023-05-10T19:38:19;101283.95;;;14.99;32.46
79378;BME280;68959;53.132;17.984;2023-05-10T19:40:47;101280.19;;;14.94;32.47
79378;BME280;68959;53.132;17.984;2023-05-10T19:43:15;101281.19;;;14.87;32.78
79378;BME280;68959;53.132;17.984;2023-05-10T19:45:42;101285.98;;;14.82;32.52
79378;BME280;68959;53.132;17.984;2023-05-10T19:48:09;101287.91;;;14.76;32.87
79378;BME280;68959;53.132;17.984;2023-05-10T19:50:36;101286.49;;;14.69;33.23
79378;BME280;68959;53.132;17.984;2023-05-10T19:53:03;101286.14;;;14.63;33.27
79378;BME280;68959;53.132;17.984;2023-05-10T19:55:30;101290.50;;;14.58;33.41
79378;BME280;68959;53.132;17.984;2023-05-10T19:57:57;101293.48;;;14.51;33.15
79378;BME280;68959;53.132;17.984;2023-05-10T20:00:28;101298.45;;;14.45;33.56
79378;BME280;68959;53.132;17.984;2023-05-10T20:02:54;101300.25;;;14.42;33.58
79378;BME280;68959;53.132;17.984;2023-05-10T20:05:22;101299.93;;;14.37;34.04
79378;BME280;68959;53.132;17.984;2023-05-10T20:07:49;101300.27;;;14.34;33.97
79378;BME280;68959;53.132;17.984;2023-05-10T20:10:16;101301.64;;;14.30;34.29
79378;BME280;68959;53.132;17.984;2023-05-10T20:12:48;101301.21;;;14.24;33.94
79378;BME280;68959;53.132;17.984;2023-05-10T20:15:20;101305.07;;;14.18;34.36
79378;BME280;68959;53.132;17.984;2023-05-10T20:17:49;101309.20;;;14.13;34.79
79378;BME280;68959;53.132;17.984;2023-05-10T20:20:19;101307.04;;;14.07;34.89
79378;BME280;68959;53.132;17.984;2023-05-10T20:22:46;101310.66;;;14.03;35.18
79378;BME280;68959;53.132;17.984;2023-05-10T20:25:14;101309.61;;;14.01;34.64
79378;BME280;68959;53.132;17.984;2023-05-10T20:27:41;101310.27;;;13.96;34.57
79378;BME280;68959;53.132;17.984;2023-05-10T20:30:09;101310.27;;;13.90;35.39
79378;BME280;68959;53.132;17.984;2023-05-10T20:32:36;101311.34;;;13.89;35.18
79378;BME280;68959;53.132;17.984;2023-05-10T20:35:03;101309.34;;;13.86;35.05
79378;BME280;68959;53.132;17.984;2023-05-10T20:37:30;101308.62;;;13.83;35.18
79378;BME280;68959;53.132;17.984;2023-05-10T20:39:57;101311.40;;;13.80;35.47
79378;BME280;68959;53.132;17.984;2023-05-10T20:42:24;101316.08;;;13.77;35.20
